sensor_id;sensor_type;location;lat;lon;timestamp;P1;durP1;ratioP1;P2;durP2;ratioP2
16228;SDS011;8222;51.462;12.630;2024-02-26T00:02:02;5.20;;;4.70;;
16228;SDS011;8222;51.462;12.630;2024-02-26T00:04:27;5.13;;;4.63;;
16228;SDS011;8222;51.462;12.630;2024-02-26T00:06:53;5.40;;;4.90;;
16228;SDS011;8222;51.462;12.630;2024-02-26T00:09:19;5.40;;;4.87;;
16228;SDS011;8222;51.462;12.630;2024-02-26T00:11:45;5.63;;;4.87;;
16228;SDS011;8222;51.462;12.630;2024-02-26T00:14:13;4.03;;;3.63;;
16228;SDS011;8222;51.462;12.630;2024-02-26T00:16:42;5.95;;;5.35;;
16228;SDS011;8222;51.462;12.630;2024-02-26T00:19:10;5.90;;;5.40;;
16228;SDS011;8222;51.462;12.630;2024-02-26T00:21:39;5.72;;;5.18;;
16228;SDS011;8222;51.462;12.630;2024-02-26T00:24:08;4.50;;;4.10;;
16228;SDS011;8222;51.462;12.630;2024-02-26T00:26:33;4.50;;;4.10;;
16228;SDS011;8222;51.462;12.630;2024-02-26T00:29:02;6.15;;;5.55;;
16228;SDS011;8222;51.462;12.630;2024-02-26T00:31:27;4.90;;;4.50;;
16228;SDS011;8222;51.462;12.630;2024-02-26T00:33:53;4.00;;;3.60;;
16228;SDS011;8222;51.462;12.630;2024-02-26T00:36:23;6.13;;;5.15;;
16228;SDS011;8222;51.462;12.630;2024-02-26T00:38:54;5.70;;;5.20;;
16228;SDS011;8222;51.462;12.630;2024-02-26T00:41:21;8.33;;;4.03;;
16228;SDS011;8222;51.462;12.630;2024-02-26T00:43:48;6.07;;;4.37;;
16228;SDS011;8222;51.462;12.630;2024-02-26T00:46:16;4.90;;;4.40;;
16228;SDS011;8222;51.462;12.630;2024-02-26T00:48:42;7.32;;;5.85;;
16228;SDS011;8222;51.462;12.630;2024-02-26T00:51:08;4.77;;;4.07;;
16228;SDS011;8222;51.462;12.630;2024-02-26T00:53:33;6.00;;;5.50;;
16228;SDS011;8222;51.462;12.630;2024-02-26T00:55:59;4.93;;;4.53;;
16228;SDS011;8222;51.462;12.630;2024-02-26T00:58:27;5.73;;;4.57;;
16228;SDS011;8222;51.462;12.630;2024-02-26T01:00:53;5.10;;;4.70;;
16228;SDS011;8222;51.462;12.630;2024-02-26T01:03:21;6.88;;;5.40;;
16228;SDS011;8222;51.462;12.630;2024-02-26T01:05:46;5.63;;;5.13;;
16228;SDS011;8222;51.462;12.630;2024-02-26T01:08:12;6.53;;;5.83;;
16228;SDS011;8222;51.462;12.630;2024-02-26T01:10:37;6.55;;;5.68;;
16228;SDS011;8222;51.462;12.630;2024-02-26T01:13:03;4.53;;;4.13;;
16228;SDS011;8222;51.462;12.630;2024-02-26T01:15:29;6.00;;;5.50;;
16228;SDS011;8222;51.462;12.630;2024-02-26T01:17:57;6.13;;;5.53;;
16228;SDS011;8222;51.462;12.630;2024-02-26T01:20:25;5.13;;;4.60;;
16228;SDS011;8222;51.462;12.630;2024-02-26T01:22:53;6.70;;;5.00;;
16228;SDS011;8222;51.462;12.630;2024-02-26T01:25:21;4.50;;;3.70;;
16228;SDS011;8222;51.462;12.630;2024-02-26T01:27:47;6.10;;;5.60;;
16228;SDS011;8222;51.462;12.630;2024-02-26T01:30:12;5.00;;;4.60;;
16228;SDS011;8222;51.462;12.630;2024-02-26T01:32:41;5.95;;;4.93;;
16228;SDS011;8222;51.462;12.630;2024-02-26T01:35:06;3.57;;;3.27;;
16228;SDS011;8222;51.462;12.630;2024-02-26T01:37:35;3.90;;;3.50;;
16228;SDS011;8222;51.462;12.630;2024-02-26T01:40:01;4.97;;;3.23;;
16228;SDS011;8222;51.462;12.630;2024-02-26T01:42:29;4.20;;;3.80;;
16228;SDS011;8222;51.462;12.630;2024-02-26T01:44:58;4.93;;;4.32;;
16228;SDS011;8222;51.462;12.630;2024-02-26T01:47:26;4.50;;;4.10;;
16228;SDS011;8222;51.462;12.630;2024-02-26T01:49:53;4.07;;;3.77;;
16228;SDS011;8222;51.462;12.630;2024-02-26T01:52:19;4.72;;;4.07;;
16228;SDS011;8222;51.462;12.630;2024-02-26T01:54:49;6.57;;;5.60;;
16228;SDS011;8222;51.462;12.630;2024-02-26T01:57:20;5.63;;;5.13;;
16228;SDS011;8222;51.462;12.630;2024-02-26T01:59:46;6.07;;;5.47;;
16228;SDS011;8222;51.462;12.630;2024-02-26T02:04:58;3.63;;;3.33;;
16228;SDS011;8222;51.462;12.630;2024-02-26T02:07:23;4.60;;;4.00;;
16228;SDS011;8222;51.462;12.630;2024-02-26T02:09:53;6.53;;;4.70;;
16228;SDS011;8222;51.462;12.630;2024-02-26T02:12:21;4.37;;;4.07;;
16228;SDS011;8222;51.462;12.630;2024-02-26T02:14:47;5.57;;;4.80;;
16228;SDS011;8222;51.462;12.630;2024-02-26T02:17:18;6.22;;;5.05;;
16228;SDS011;8222;51.462;12.630;2024-02-26T02:19:44;6.47;;;5.63;;
16228;SDS011;8222;51.462;12.630;2024-02-26T02:22:12;5.47;;;4.97;;
16228;SDS011;8222;51.462;12.630;2024-02-26T02:24:42;4.80;;;4.30;;
16228;SDS011;8222;51.462;12.630;2024-02-26T02:27:10;6.67;;;6.07;;
16228;SDS011;8222;51.462;12.630;2024-02-26T02:29:36;5.43;;;4.93;;
16228;SDS011;8222;51.462;12.630;2024-02-26T02:32:04;5.38;;;4.97;;
16228;SDS011;8222;51.462;12.630;2024-02-26T02:34:33;6.63;;;5.03;;
16228;SDS011;8222;51.462;12.630;2024-02-26T02:37:04;5.57;;;4.97;;
16228;SDS011;8222;51.462;12.630;2024-02-26T02:39:29;6.30;;;5.05;;
16228;SDS011;8222;51.462;12.630;2024-02-26T02:41:55;6.27;;;5.30;;
16228;SDS011;8222;51.462;12.630;2024-02-26T02:44:20;4.57;;;3.40;;
16228;SDS011;8222;51.462;12.630;2024-02-26T02:46:48;5.60;;;5.10;;
16228;SDS011;8222;51.462;12.630;2024-02-26T02:49:15;3.97;;;3.57;;
16228;SDS011;8222;51.462;12.630;2024-02-26T02:51:41;5.70;;;5.03;;
16228;SDS011;8222;51.462;12.630;2024-02-26T02:54:09;4.10;;;3.70;;
16228;SDS011;8222;51.462;12.630;2024-02-26T02:56:35;6.60;;;5.57;;
16228;SDS011;8222;51.462;12.630;2024-02-26T02:59:01;5.27;;;4.77;;
16228;SDS011;8222;51.462;12.630;2024-02-26T03:01:30;4.60;;;4.20;;
16228;SDS011;8222;51.462;12.630;2024-02-26T03:03:56;5.93;;;5.22;;
16228;SDS011;8222;51.462;12.630;2024-02-26T03:06:21;7.10;;;5.93;;
16228;SDS011;8222;51.462;12.630;2024-02-26T03:08:50;5.33;;;4.83;;
16228;SDS011;8222;51.462;12.630;2024-02-26T03:11:18;4.57;;;4.13;;
16228;SDS011;8222;51.462;12.630;2024-02-26T03:13:44;7.63;;;6.85;;
16228;SDS011;8222;51.462;12.630;2024-02-26T03:16:10;8.77;;;7.60;;
16228;SDS011;8222;51.462;12.630;2024-02-26T03:18:38;10.00;;;8.97;;
16228;SDS011;8222;51.462;12.630;2024-02-26T03:21:06;10.38;;;9.32;;
16228;SDS011;8222;51.462;12.630;2024-02-26T03:23:32;10.05;;;9.00;;
16228;SDS011;8222;51.462;12.630;2024-02-26T03:26:03;12.18;;;10.77;;
16228;SDS011;8222;51.462;12.630;2024-02-26T03:28:31;13.67;;;8.70;;
16228;SDS011;8222;51.462;12.630;2024-02-26T03:30:58;9.93;;;8.63;;
16228;SDS011;8222;51.462;12.630;2024-02-26T03:33:24;13.20;;;10.75;;
16228;SDS011;8222;51.462;12.630;2024-02-26T03:35:52;15.55;;;11.65;;
16228;SDS011;8222;51.462;12.630;2024-02-26T03:38:18;14.97;;;10.60;;
16228;SDS011;8222;51.462;12.630;2024-02-26T03:40:44;14.07;;;12.60;;
16228;SDS011;8222;51.462;12.630;2024-02-26T03:43:12;18.37;;;14.30;;
16228;SDS011;8222;51.462;12.630;2024-02-26T03:45:37;18.08;;;14.35;;
16228;SDS011;8222;51.462;12.630;2024-02-26T03:48:06;16.17;;;12.63;;
16228;SDS011;8222;51.462;12.630;2024-02-26T03:50:31;17.08;;;14.90;;
16228;SDS011;8222;51.462;12.630;2024-02-26T03:52:57;12.60;;;11.30;;
16228;SDS011;8222;51.462;12.630;2024-02-26T03:55:28;17.15;;;13.85;;
16228;SDS011;8222;51.462;12.630;2024-02-26T03:57:56;17.13;;;15.25;;
16228;SDS011;8222;51.462;12.630;2024-02-26T04:00:22;16.77;;;14.15;;
16228;SDS011;8222;51.462;12.630;2024-02-26T04:02:48;20.65;;;15.85;;
16228;SDS011;8222;51.462;12.630;2024-02-26T04:05:18;18.63;;;15.13;;
16228;SDS011;8222;51.462;12.630;2024-02-26T04:07:44;19.43;;;11.97;;
16228;SDS011;8222;51.462;12.630;2024-02-26T04:10:10;14.52;;;11.95;;
16228;SDS011;8222;51.462;12.630;2024-02-26T04:12:39;13.93;;;11.43;;
16228;SDS011;8222;51.462;12.630;2024-02-26T04:15:08;13.55;;;10.70;;
16228;SDS011;8222;51.462;12.630;2024-02-26T04:17:35;11.47;;;10.27;;
16228;SDS011;8222;51.462;12.630;2024-02-26T04:20:01;16.25;;;13.85;;
16228;SDS011;8222;51.462;12.630;2024-02-26T04:22:28;17.27;;;13.85;;
16228;SDS011;8222;51.462;12.630;2024-02-26T04:24:56;17.10;;;14.75;;
16228;SDS011;8222;51.462;12.630;2024-02-26T04:27:24;12.03;;;10.67;;
16228;SDS011;8222;51.462;12.630;2024-02-26T04:29:50;14.15;;;11.73;;
16228;SDS011;8222;51.462;12.630;2024-02-26T04:32:20;10.55;;;9.43;;
16228;SDS011;8222;51.462;12.630;2024-02-26T04:34:45;10.03;;;9.00;;
16228;SDS011;8222;51.462;12.630;2024-02-26T04:37:11;13.70;;;11.87;;
16228;SDS011;8222;51.462;12.630;2024-02-26T04:39:37;14.75;;;11.20;;
16228;SDS011;8222;51.462;12.630;2024-02-26T04:42:05;10.60;;;8.53;;
16228;SDS011;8222;51.462;12.630;2024-02-26T04:44:30;12.80;;;10.60;;
16228;SDS011;8222;51.462;12.630;2024-02-26T04:46:56;12.50;;;9.23;;
16228;SDS011;8222;51.462;12.630;2024-02-26T04:49:22;12.25;;;9.93;;
16228;SDS011;8222;51.462;12.630;2024-02-26T04:51:50;12.47;;;7.77;;
16228;SDS011;8222;51.462;12.630;2024-02-26T04:54:15;11.65;;;10.30;;
16228;SDS011;8222;51.462;12.630;2024-02-26T04:56:42;12.50;;;10.48;;
16228;SDS011;8222;51.462;12.630;2024-02-26T04:59:07;12.43;;;10.98;;
16228;SDS011;8222;51.462;12.630;2024-02-26T05:01:33;12.93;;;11.03;;
16228;SDS011;8222;51.462;12.630;2024-02-26T05:03:59;14.85;;;12.55;;
16228;SDS011;8222;51.462;12.630;2024-02-26T05:06:24;15.60;;;12.73;;
16228;SDS011;8222;51.462;12.630;2024-02-26T05:08:50;12.20;;;10.33;;
16228;SDS011;8222;51.462;12.630;2024-02-26T05:11:18;10.37;;;9.10;;
16228;SDS011;8222;51.462;12.630;2024-02-26T05:13:44;16.15;;;12.68;;
16228;SDS011;8222;51.462;12.630;2024-02-26T05:16:11;19.08;;;15.82;;
16228;SDS011;8222;51.462;12.630;2024-02-26T05:18:39;19.90;;;16.53;;
16228;SDS011;8222;51.462;12.630;2024-02-26T05:21:05;21.60;;;16.90;;
16228;SDS011;8222;51.462;12.630;2024-02-26T05:23:31;26.80;;;21.88;;
16228;SDS011;8222;51.462;12.630;2024-02-26T05:25:56;22.40;;;19.53;;
16228;SDS011;8222;51.462;12.630;2024-02-26T05:28:24;17.77;;;15.87;;
16228;SDS011;8222;51.462;12.630;2024-02-26T05:30:50;18.73;;;15.80;;
16228;SDS011;8222;51.462;12.630;2024-02-26T05:33:16;14.50;;;12.27;;
16228;SDS011;8222;51.462;12.630;2024-02-26T05:35:41;13.00;;;11.60;;
16228;SDS011;8222;51.462;12.630;2024-02-26T05:38:09;19.88;;;16.30;;
16228;SDS011;8222;51.462;12.630;2024-02-26T05:40:37;19.40;;;16.90;;
16228;SDS011;8222;51.462;12.630;2024-02-26T05:43:05;21.88;;;19.48;;
16228;SDS011;8222;51.462;12.630;2024-02-26T05:45:33;15.60;;;13.93;;
16228;SDS011;8222;51.462;12.630;2024-02-26T05:48:01;30.43;;;15.57;;
16228;SDS011;8222;51.462;12.630;2024-02-26T05:50:28;19.33;;;12.20;;
16228;SDS011;8222;51.462;12.630;2024-02-26T05:52:53;13.90;;;10.43;;
16228;SDS011;8222;51.462;12.630;2024-02-26T05:55:19;19.43;;;12.73;;
16228;SDS011;8222;51.462;12.630;2024-02-26T05:57:44;14.70;;;11.60;;
16228;SDS011;8222;51.462;12.630;2024-02-26T06:00:17;18.70;;;16.73;;
16228;SDS011;8222;51.462;12.630;2024-02-26T06:02:45;17.15;;;14.73;;
16228;SDS011;8222;51.462;12.630;2024-02-26T06:05:12;18.98;;;16.98;;
16228;SDS011;8222;51.462;12.630;2024-02-26T06:07:38;20.13;;;17.13;;
16228;SDS011;8222;51.462;12.630;2024-02-26T06:10:04;16.33;;;13.87;;
16228;SDS011;8222;51.462;12.630;2024-02-26T06:12:30;20.13;;;16.35;;
16228;SDS011;8222;51.462;12.630;2024-02-26T06:15:02;18.42;;;16.50;;
16228;SDS011;8222;51.462;12.630;2024-02-26T06:17:31;22.23;;;18.50;;
16228;SDS011;8222;51.462;12.630;2024-02-26T06:19:56;20.07;;;16.90;;
16228;SDS011;8222;51.462;12.630;2024-02-26T06:22:24;18.37;;;13.30;;
16228;SDS011;8222;51.462;12.630;2024-02-26T06:24:52;18.10;;;15.35;;
16228;SDS011;8222;51.462;12.630;2024-02-26T06:27:17;17.33;;;13.20;;
16228;SDS011;8222;51.462;12.630;2024-02-26T06:29:43;19.45;;;14.77;;
16228;SDS011;8222;51.462;12.630;2024-02-26T06:32:09;15.27;;;13.60;;
16228;SDS011;8222;51.462;12.630;2024-02-26T06:34:37;21.37;;;17.27;;
16228;SDS011;8222;51.462;12.630;2024-02-26T06:37:03;21.58;;;16.38;;
16228;SDS011;8222;51.462;12.630;2024-02-26T06:39:29;18.35;;;14.63;;
16228;SDS011;8222;51.462;12.630;2024-02-26T06:41:57;20.30;;;16.45;;
16228;SDS011;8222;51.462;12.630;2024-02-26T06:44:26;19.87;;;13.17;;
16228;SDS011;8222;51.462;12.630;2024-02-26T06:46:59;13.23;;;11.83;;
16228;SDS011;8222;51.462;12.630;2024-02-26T06:49:25;16.60;;;11.30;;
16228;SDS011;8222;51.462;12.630;2024-02-26T06:51:53;17.60;;;14.60;;
16228;SDS011;8222;51.462;12.630;2024-02-26T06:54:19;19.95;;;15.18;;
16228;SDS011;8222;51.462;12.630;2024-02-26T06:56:45;18.33;;;15.90;;
16228;SDS011;8222;51.462;12.630;2024-02-26T06:59:11;17.55;;;15.65;;
16228;SDS011;8222;51.462;12.630;2024-02-26T07:01:37;21.03;;;15.70;;
16228;SDS011;8222;51.462;12.630;2024-02-26T07:04:05;18.10;;;16.10;;
16228;SDS011;8222;51.462;12.630;2024-02-26T07:06:30;18.93;;;15.67;;
16228;SDS011;8222;51.462;12.630;2024-02-26T07:08:58;18.20;;;16.23;;
16228;SDS011;8222;51.462;12.630;2024-02-26T07:11:26;16.17;;;14.50;;
16228;SDS011;8222;51.462;12.630;2024-02-26T07:13:52;19.38;;;15.68;;
16228;SDS011;8222;51.462;12.630;2024-02-26T07:16:20;16.67;;;14.82;;
16228;SDS011;8222;51.462;12.630;2024-02-26T07:18:48;16.67;;;14.60;;
16228;SDS011;8222;51.462;12.630;2024-02-26T07:21:13;15.87;;;14.27;;
16228;SDS011;8222;51.462;12.630;2024-02-26T07:23:41;16.13;;;13.90;;
16228;SDS011;8222;51.462;12.630;2024-02-26T07:26:07;16.95;;;14.52;;
16228;SDS011;8222;51.462;12.630;2024-02-26T07:28:33;18.63;;;15.13;;
16228;SDS011;8222;51.462;12.630;2024-02-26T07:30:59;16.67;;;12.70;;
16228;SDS011;8222;51.462;12.630;2024-02-26T07:33:26;11.93;;;10.73;;
16228;SDS011;8222;51.462;12.630;2024-02-26T07:35:52;11.70;;;10.27;;
16228;SDS011;8222;51.462;12.630;2024-02-26T07:38:20;11.53;;;10.27;;
16228;SDS011;8222;51.462;12.630;2024-02-26T07:40:48;13.87;;;11.07;;
16228;SDS011;8222;51.462;12.630;2024-02-26T07:43:13;13.97;;;11.37;;
16228;SDS011;8222;51.462;12.630;2024-02-26T07:45:39;16.98;;;13.90;;
16228;SDS011;8222;51.462;12.630;2024-02-26T07:48:05;18.13;;;14.60;;
16228;SDS011;8222;51.462;12.630;2024-02-26T07:50:30;17.10;;;13.00;;
16228;SDS011;8222;51.462;12.630;2024-02-26T07:52:58;17.83;;;14.27;;
16228;SDS011;8222;51.462;12.630;2024-02-26T07:55:26;16.67;;;13.00;;
16228;SDS011;8222;51.462;12.630;2024-02-26T07:57:54;15.48;;;13.88;;
16228;SDS011;8222;51.462;12.630;2024-02-26T08:00:24;16.45;;;13.80;;
16228;SDS011;8222;51.462;12.630;2024-02-26T08:02:50;11.87;;;10.57;;
16228;SDS011;8222;51.462;12.630;2024-02-26T08:05:15;12.33;;;10.27;;
16228;SDS011;8222;51.462;12.630;2024-02-26T08:07:41;11.77;;;10.23;;
16228;SDS011;8222;51.462;12.630;2024-02-26T08:10:07;14.87;;;13.23;;
16228;SDS011;8222;51.462;12.630;2024-02-26T08:12:38;14.40;;;12.90;;
16228;SDS011;8222;51.462;12.630;2024-02-26T08:15:04;14.33;;;12.83;;
16228;SDS011;8222;51.462;12.630;2024-02-26T08:17:35;12.60;;;11.23;;
16228;SDS011;8222;51.462;12.630;2024-02-26T08:20:01;14.67;;;10.80;;
16228;SDS011;8222;51.462;12.630;2024-02-26T08:22:27;11.43;;;10.00;;
16228;SDS011;8222;51.462;12.630;2024-02-26T08:24:57;10.20;;;9.20;;
16228;SDS011;8222;51.462;12.630;2024-02-26T08:27:23;12.33;;;9.83;;
16228;SDS011;8222;51.462;12.630;2024-02-26T08:29:49;10.63;;;9.53;;
16228;SDS011;8222;51.462;12.630;2024-02-26T08:32:14;12.37;;;10.20;;
16228;SDS011;8222;51.462;12.630;2024-02-26T08:34:40;16.10;;;11.87;;
16228;SDS011;8222;51.462;12.630;2024-02-26T08:37:05;14.33;;;11.67;;
16228;SDS011;8222;51.462;12.630;2024-02-26T08:39:31;16.42;;;12.50;;
16228;SDS011;8222;51.462;12.630;2024-02-26T08:41:59;14.55;;;12.15;;
16228;SDS011;8222;51.462;12.630;2024-02-26T08:44:29;12.07;;;10.80;;
16228;SDS011;8222;51.462;12.630;2024-02-26T08:46:55;14.17;;;12.63;;
16228;SDS011;8222;51.462;12.630;2024-02-26T08:49:23;11.10;;;9.90;;
16228;SDS011;8222;51.462;12.630;2024-02-26T08:51:49;13.83;;;10.67;;
16228;SDS011;8222;51.462;12.630;2024-02-26T08:54:17;13.27;;;9.30;;
16228;SDS011;8222;51.462;12.630;2024-02-26T08:56:47;11.20;;;9.77;;
16228;SDS011;8222;51.462;12.630;2024-02-26T08:59:15;15.60;;;12.07;;
16228;SDS011;8222;51.462;12.630;2024-02-26T09:01:41;13.30;;;9.83;;
16228;SDS011;8222;51.462;12.630;2024-02-26T09:04:07;14.15;;;12.32;;
16228;SDS011;8222;51.462;12.630;2024-02-26T09:06:32;12.03;;;10.13;;
16228;SDS011;8222;51.462;12.630;2024-02-26T09:08:58;13.85;;;11.73;;
16228;SDS011;8222;51.462;12.630;2024-02-26T09:11:23;17.17;;;9.53;;
16228;SDS011;8222;51.462;12.630;2024-02-26T09:13:49;11.43;;;9.30;;
16228;SDS011;8222;51.462;12.630;2024-02-26T09:16:17;9.20;;;8.27;;
16228;SDS011;8222;51.462;12.630;2024-02-26T09:18:43;11.60;;;8.90;;
16228;SDS011;8222;51.462;12.630;2024-02-26T09:21:08;9.13;;;8.07;;
16228;SDS011;8222;51.462;12.630;2024-02-26T09:23:34;11.10;;;8.90;;
16228;SDS011;8222;51.462;12.630;2024-02-26T09:26:00;10.30;;;8.77;;
16228;SDS011;8222;51.462;12.630;2024-02-26T09:28:25;8.97;;;7.97;;
16228;SDS011;8222;51.462;12.630;2024-02-26T09:30:51;10.10;;;8.73;;
16228;SDS011;8222;51.462;12.630;2024-02-26T09:33:17;11.90;;;9.20;;
16228;SDS011;8222;51.462;12.630;2024-02-26T09:35:44;10.77;;;8.07;;
16228;SDS011;8222;51.462;12.630;2024-02-26T09:38:10;9.17;;;8.20;;
16228;SDS011;8222;51.462;12.630;2024-02-26T09:40:35;9.10;;;8.20;;
16228;SDS011;8222;51.462;12.630;2024-02-26T09:43:02;9.93;;;8.75;;
16228;SDS011;8222;51.462;12.630;2024-02-26T09:45:30;9.55;;;8.65;;
16228;SDS011;8222;51.462;12.630;2024-02-26T09:48:00;8.68;;;7.82;;
16228;SDS011;8222;51.462;12.630;2024-02-26T09:50:29;8.80;;;7.47;;
16228;SDS011;8222;51.462;12.630;2024-02-26T09:52:57;8.85;;;8.05;;
16228;SDS011;8222;51.462;12.630;2024-02-26T09:55:24;7.67;;;6.37;;
16228;SDS011;8222;51.462;12.630;2024-02-26T09:57:52;10.17;;;8.10;;
16228;SDS011;8222;51.462;12.630;2024-02-26T10:00:19;7.47;;;6.63;;
16228;SDS011;8222;51.462;12.630;2024-02-26T10:02:48;7.17;;;6.33;;
16228;SDS011;8222;51.462;12.630;2024-02-26T10:05:16;11.18;;;8.02;;
16228;SDS011;8222;51.462;12.630;2024-02-26T10:07:46;7.73;;;6.70;;
16228;SDS011;8222;51.462;12.630;2024-02-26T10:10:19;8.23;;;7.43;;
16228;SDS011;8222;51.462;12.630;2024-02-26T10:12:47;8.00;;;7.03;;
16228;SDS011;8222;51.462;12.630;2024-02-26T10:15:15;10.47;;;6.87;;
16228;SDS011;8222;51.462;12.630;2024-02-26T10:17:41;8.87;;;7.97;;
16228;SDS011;8222;51.462;12.630;2024-02-26T10:20:13;9.50;;;8.53;;
16228;SDS011;8222;51.462;12.630;2024-02-26T10:22:41;8.80;;;7.90;;
16228;SDS011;8222;51.462;12.630;2024-02-26T10:25:09;9.07;;;8.18;;
16228;SDS011;8222;51.462;12.630;2024-02-26T10:27:35;10.03;;;7.60;;
16228;SDS011;8222;51.462;12.630;2024-02-26T10:30:03;9.70;;;7.03;;
16228;SDS011;8222;51.462;12.630;2024-02-26T10:32:40;9.25;;;8.35;;
16228;SDS011;8222;51.462;12.630;2024-02-26T10:35:08;8.95;;;8.25;;
16228;SDS011;8222;51.462;12.630;2024-02-26T10:37:34;7.13;;;6.40;;
16228;SDS011;8222;51.462;12.630;2024-02-26T10:40:09;8.90;;;8.00;;
16228;SDS011;8222;51.462;12.630;2024-02-26T10:43:13;8.43;;;7.60;;
16228;SDS011;8222;51.462;12.630;2024-02-26T10:45:39;8.03;;;6.97;;
16228;SDS011;8222;51.462;12.630;2024-02-26T10:48:14;8.15;;;7.45;;
16228;SDS011;8222;51.462;12.630;2024-02-26T10:50:40;8.48;;;7.60;;
16228;SDS011;8222;51.462;12.630;2024-02-26T10:53:10;9.67;;;7.63;;
16228;SDS011;8222;51.462;12.630;2024-02-26T10:55:49;8.52;;;7.32;;
16228;SDS011;8222;51.462;12.630;2024-02-26T10:58:22;7.57;;;6.78;;
16228;SDS011;8222;51.462;12.630;2024-02-26T11:00:50;8.13;;;7.37;;
16228;SDS011;8222;51.462;12.630;2024-02-26T11:03:22;6.97;;;6.37;;
16228;SDS011;8222;51.462;12.630;2024-02-26T11:05:51;7.93;;;7.13;;
16228;SDS011;8222;51.462;12.630;2024-02-26T11:08:18;9.07;;;6.50;;
16228;SDS011;8222;51.462;12.630;2024-02-26T11:10:47;8.57;;;6.93;;
16228;SDS011;8222;51.462;12.630;2024-02-26T11:13:14;8.80;;;7.82;;
16228;SDS011;8222;51.462;12.630;2024-02-26T11:15:42;7.67;;;6.87;;
16228;SDS011;8222;51.462;12.630;2024-02-26T11:18:08;9.00;;;6.43;;
16228;SDS011;8222;51.462;12.630;2024-02-26T11:20:38;6.07;;;5.57;;
16228;SDS011;8222;51.462;12.630;2024-02-26T11:23:05;9.40;;;5.97;;
16228;SDS011;8222;51.462;12.630;2024-02-26T11:25:32;6.87;;;5.90;;
16228;SDS011;8222;51.462;12.630;2024-02-26T11:27:58;6.67;;;5.97;;
16228;SDS011;8222;51.462;12.630;2024-02-26T11:30:26;8.33;;;5.90;;
16228;SDS011;8222;51.462;12.630;2024-02-26T11:32:56;5.80;;;5.20;;
16228;SDS011;8222;51.462;12.630;2024-02-26T11:35:23;8.30;;;6.60;;
16228;SDS011;8222;51.462;12.630;2024-02-26T11:37:53;8.07;;;7.28;;
16228;SDS011;8222;51.462;12.630;2024-02-26T11:40:23;7.43;;;6.72;;
16228;SDS011;8222;51.462;12.630;2024-02-26T11:42:50;7.45;;;6.45;;
16228;SDS011;8222;51.462;12.630;2024-02-26T11:48:14;7.40;;;6.38;;
16228;SDS011;8222;51.462;12.630;2024-02-26T11:50:43;6.77;;;6.07;;
16228;SDS011;8222;51.462;12.630;2024-02-26T11:58:57;7.97;;;7.17;;
16228;SDS011;8222;51.462;12.630;2024-02-26T12:04:26;7.37;;;5.60;;
16228;SDS011;8222;51.462;12.630;2024-02-26T12:06:53;7.32;;;6.63;;
16228;SDS011;8222;51.462;12.630;2024-02-26T12:09:31;6.65;;;5.90;;
16228;SDS011;8222;51.462;12.630;2024-02-26T12:11:57;8.52;;;6.32;;
16228;SDS011;8222;51.462;12.630;2024-02-26T12:14:26;6.88;;;6.20;;
16228;SDS011;8222;51.462;12.630;2024-02-26T12:16:52;5.33;;;4.73;;
16228;SDS011;8222;51.462;12.630;2024-02-26T12:19:20;6.85;;;6.20;;
16228;SDS011;8222;51.462;12.630;2024-02-26T12:21:54;7.37;;;4.93;;
16228;SDS011;8222;51.462;12.630;2024-02-26T12:24:20;7.68;;;5.55;;
16228;SDS011;8222;51.462;12.630;2024-02-26T12:26:46;10.10;;;5.47;;
16228;SDS011;8222;51.462;12.630;2024-02-26T12:29:12;9.38;;;4.88;;
16228;SDS011;8222;51.462;12.630;2024-02-26T12:31:40;6.25;;;5.65;;
16228;SDS011;8222;51.462;12.630;2024-02-26T12:34:09;6.13;;;5.53;;
16228;SDS011;8222;51.462;12.630;2024-02-26T12:36:35;7.07;;;6.38;;
16228;SDS011;8222;51.462;12.630;2024-02-26T12:39:04;8.23;;;6.33;;
16228;SDS011;8222;51.462;12.630;2024-02-26T12:41:35;6.47;;;5.70;;
16228;SDS011;8222;51.462;12.630;2024-02-26T12:44:03;6.33;;;5.70;;
16228;SDS011;8222;51.462;12.630;2024-02-26T12:46:29;6.33;;;5.50;;
16228;SDS011;8222;51.462;12.630;2024-02-26T12:48:58;6.38;;;5.13;;
16228;SDS011;8222;51.462;12.630;2024-02-26T12:51:24;6.18;;;5.57;;
16228;SDS011;8222;51.462;12.630;2024-02-26T12:53:51;5.73;;;5.23;;
16228;SDS011;8222;51.462;12.630;2024-02-26T12:56:21;6.77;;;5.40;;
16228;SDS011;8222;51.462;12.630;2024-02-26T12:58:47;5.80;;;5.13;;
16228;SDS011;8222;51.462;12.630;2024-02-26T13:01:15;5.10;;;4.70;;
16228;SDS011;8222;51.462;12.630;2024-02-26T13:03:45;6.80;;;5.50;;
16228;SDS011;8222;51.462;12.630;2024-02-26T13:06:13;6.70;;;6.00;;
16228;SDS011;8222;51.462;12.630;2024-02-26T13:08:46;5.67;;;5.17;;
16228;SDS011;8222;51.462;12.630;2024-02-26T13:11:12;6.73;;;5.73;;
16228;SDS011;8222;51.462;12.630;2024-02-26T13:13:38;7.03;;;6.00;;
16228;SDS011;8222;51.462;12.630;2024-02-26T13:16:07;5.40;;;4.73;;
16228;SDS011;8222;51.462;12.630;2024-02-26T13:18:34;6.30;;;5.72;;
16228;SDS011;8222;51.462;12.630;2024-02-26T13:21:20;8.68;;;6.15;;
16228;SDS011;8222;51.462;12.630;2024-02-26T13:23:52;5.57;;;4.97;;
16228;SDS011;8222;51.462;12.630;2024-02-26T13:26:22;7.65;;;6.43;;
16228;SDS011;8222;51.462;12.630;2024-02-26T13:29:03;7.20;;;6.55;;
16228;SDS011;8222;51.462;12.630;2024-02-26T13:31:29;8.73;;;6.67;;
16228;SDS011;8222;51.462;12.630;2024-02-26T13:33:55;8.35;;;7.50;;
16228;SDS011;8222;51.462;12.630;2024-02-26T13:36:24;8.77;;;7.27;;
16228;SDS011;8222;51.462;12.630;2024-02-26T13:38:51;8.03;;;7.23;;
16228;SDS011;8222;51.462;12.630;2024-02-26T13:41:18;8.70;;;6.65;;
16228;SDS011;8222;51.462;12.630;2024-02-26T13:43:43;7.53;;;6.83;;
16228;SDS011;8222;51.462;12.630;2024-02-26T13:46:09;10.23;;;8.60;;
16228;SDS011;8222;51.462;12.630;2024-02-26T13:48:37;8.27;;;6.50;;
16228;SDS011;8222;51.462;12.630;2024-02-26T13:51:03;7.03;;;6.33;;
16228;SDS011;8222;51.462;12.630;2024-02-26T13:53:31;7.60;;;6.67;;
16228;SDS011;8222;51.462;12.630;2024-02-26T13:56:00;9.13;;;6.90;;
16228;SDS011;8222;51.462;12.630;2024-02-26T13:58:27;8.87;;;7.27;;
16228;SDS011;8222;51.462;12.630;2024-02-26T14:00:53;7.57;;;6.77;;
16228;SDS011;8222;51.462;12.630;2024-02-26T14:03:24;9.13;;;7.38;;
16228;SDS011;8222;51.462;12.630;2024-02-26T14:05:51;10.25;;;7.90;;
16228;SDS011;8222;51.462;12.630;2024-02-26T14:08:17;7.93;;;6.83;;
16228;SDS011;8222;51.462;12.630;2024-02-26T14:10:43;7.53;;;6.63;;
16228;SDS011;8222;51.462;12.630;2024-02-26T14:13:11;10.10;;;6.90;;
16228;SDS011;8222;51.462;12.630;2024-02-26T14:15:39;11.07;;;7.47;;
16228;SDS011;8222;51.462;12.630;2024-02-26T14:18:05;9.73;;;8.47;;
16228;SDS011;8222;51.462;12.630;2024-02-26T14:20:32;9.68;;;7.40;;
16228;SDS011;8222;51.462;12.630;2024-02-26T14:22:58;6.70;;;6.10;;
16228;SDS011;8222;51.462;12.630;2024-02-26T14:25:24;8.10;;;6.93;;
16228;SDS011;8222;51.462;12.630;2024-02-26T14:27:51;7.90;;;6.93;;
16228;SDS011;8222;51.462;12.630;2024-02-26T14:30:22;9.27;;;7.03;;
16228;SDS011;8222;51.462;12.630;2024-02-26T14:32:47;8.13;;;7.33;;
16228;SDS011;8222;51.462;12.630;2024-02-26T14:35:15;9.57;;;7.50;;
16228;SDS011;8222;51.462;12.630;2024-02-26T14:37:43;7.60;;;6.90;;
16228;SDS011;8222;51.462;12.630;2024-02-26T14:40:13;8.07;;;6.50;;
16228;SDS011;8222;51.462;12.630;2024-02-26T14:42:40;9.53;;;6.87;;
16228;SDS011;8222;51.462;12.630;2024-02-26T14:45:09;8.10;;;7.35;;
16228;SDS011;8222;51.462;12.630;2024-02-26T14:47:36;8.13;;;6.80;;
16228;SDS011;8222;51.462;12.630;2024-02-26T14:50:04;7.47;;;6.77;;
16228;SDS011;8222;51.462;12.630;2024-02-26T14:52:30;11.00;;;6.67;;
16228;SDS011;8222;51.462;12.630;2024-02-26T14:54:56;9.43;;;7.33;;